Dodsland, Canada
Current Conditions -  °F | °C
As of 11:00 PM on Saturday 25 Oct 2014 (Local Time) from CYKY Reporting Station
Overcast Overcast  
Wind Chill: 33°   Ceiling: 24000
Heat Index: 43°   Visibility: 15mi
Dew Point: 32°   Wind: 24mph
Humidity: 66%   Direction: 110°ESE
Pressure: 29.56"   Gusts: 31mph
Location:  51.8°N, 108.83°W
Report Text: CYKY 260500Z 11021G27KT 15SM FEW050 OVC240 06/M00 A2956 RMK SC2CI6 PRESFR SLP028
Loading
Personal Weather Stations






























Interactive Weather Map
Tropical Storm Tracking
New forecast layout! Learn more

10-Day Weather Forecast

Advertisements
Track Severe Weather on mobile